Miyakojima, Japan

9:02 AM JST on September 01, 2016 (GMT +0900)
Miyako | | Change Station

Elev 135 ft 24.79 °N, 125.28 °E | Updated 1 hour ago

Mostly Cloudy
Mostly Cloudy
82 °F
Feels Like 91 °F
N
4
Wind Variable Wind from NE

Today
High -- | Low -- °F
--% Chance of Precip.
Yesterday
High -- | Low -- °F
Precip. -- in
Pressure 29.65 in
Visibility 6.2 miles
Clouds Few 2000 ft
Mostly Cloudy 8000 ft
Heat Index 91 °F
Dew Point 77 °F
Humidity 84%
Rainfall 0.00 in
Snow Depth Not available.
6:19 AM 6:57 PM
Waning Crescent, 0% visible
METAR ROMY 312300Z 04003KT 9999 FEW020 BKN080 28/25 Q1004
Pressure 29.65 in
Visibility 6.2 miles
Clouds Few 2000 ft
Mostly Cloudy 8000 ft
Heat Index 91 °F
Dew Point 77 °F
Humidity 84%
Rainfall 0.00 in
Snow Depth Not available.
6:19 AM 6:57 PM
Waning Crescent, 0% visible
METAR ROMY 312300Z 04003KT 9999 FEW020 BKN080 28/25 Q1004

10-Day Weather Forecast

No radar image for this location.
×

Almanac

Astronomy

Sep. 01, 2016 Rise Set
Actual Time
Civil Twilight
Nautical Twilight
Astronomical Twilight
Moon
Length of Visible Light
Length of Day
Tomorrow will be .
, % of the Moon is Illuminated

Today's Extremes

Country Highs Country Lows

Community

WunderPhotos

Upload Photos

1,936,219 photos uploaded!

WunderBlog® & News

Nearby

Air Quality

  Air Quality AQ Index Pollutant
Not available.

Snow Depth

Station Depth Elevation

Earthquake Activity

City Distance Mag. Time & Date
Minimum magnitude displayed is 2.5.

Coastal Water Temperatures

Place Temperature

Stations

Nearby Weather Stations

Station Location Temp. Windchill Dew Point Humidity Wind Precip. Elev Updated Type